sensor_id;sensor_type;location;lat;lon;timestamp;pressure;altitude;pressure_sealevel;temperature;humidity
12358;BME280;6243;51.244;6.774;2023-05-29T00:01:10;151958.88;;;17.81;60.93
12358;BME280;6243;51.244;6.774;2023-05-29T00:03:36;151975.47;;;17.88;60.63
12358;BME280;6243;51.244;6.774;2023-05-29T00:06:02;151952.47;;;17.79;60.73
12358;BME280;6243;51.244;6.774;2023-05-29T00:08:28;151965.28;;;17.84;60.84
12358;BME280;6243;51.244;6.774;2023-05-29T00:10:53;151970.38;;;17.86;60.90
12358;BME280;6243;51.244;6.774;2023-05-29T00:13:19;151984.41;;;17.91;60.49
12358;BME280;6243;51.244;6.774;2023-05-29T00:15:44;151963.97;;;17.83;60.84
12358;BME280;6243;51.244;6.774;2023-05-29T00:18:11;151961.41;;;17.82;61.01
12358;BME280;6243;51.244;6.774;2023-05-29T00:20:37;151978.06;;;17.89;60.89
12358;BME280;6243;51.244;6.774;2023-05-29T00:23:02;151963.97;;;17.83;60.91
12358;BME280;6243;51.244;6.774;2023-05-29T00:25:28;151958.88;;;17.81;61.42
12358;BME280;6243;51.244;6.774;2023-05-29T00:27:53;151939.69;;;17.73;61.39
12358;BME280;6243;51.244;6.774;2023-05-29T00:30:18;151940.97;;;17.74;61.57
12358;BME280;6243;51.244;6.774;2023-05-29T00:32:44;151929.47;;;17.69;61.86
12358;BME280;6243;51.244;6.774;2023-05-29T00:35:11;151928.19;;;17.69;61.99
12358;BME280;6243;51.244;6.774;2023-05-29T00:37:36;151920.50;;;17.66;62.25
12358;BME280;6243;51.244;6.774;2023-05-29T00:40:02;151925.66;;;17.68;62.09
12358;BME280;6243;51.244;6.774;2023-05-29T00:42:28;151878.31;;;17.49;62.88
12358;BME280;6243;51.244;6.774;2023-05-29T00:44:53;151824.63;;;17.28;63.76
12358;BME280;6243;51.244;6.774;2023-05-29T00:47:19;151836.13;;;17.33;63.77
12358;BME280;6243;51.244;6.774;2023-05-29T00:49:44;151879.59;;;17.50;63.50
12358;BME280;6243;51.244;6.774;2023-05-29T00:52:12;151905.19;;;17.60;63.18
12358;BME280;6243;51.244;6.774;2023-05-29T00:54:38;151903.88;;;17.59;63.67
12358;BME280;6243;51.244;6.774;2023-05-29T00:57:04;151894.97;;;17.56;64.04
12358;BME280;6243;51.244;6.774;2023-05-29T00:59:32;151862.94;;;17.43;65.16
12358;BME280;6243;51.244;6.774;2023-05-29T01:01:59;151848.91;;;17.38;65.42
12358;BME280;6243;51.244;6.774;2023-05-29T01:04:26;151833.59;;;17.32;66.08
12358;BME280;6243;51.244;6.774;2023-05-29T01:06:52;151805.44;;;17.21;66.89
12358;BME280;6243;51.244;6.774;2023-05-29T01:09:19;151786.31;;;17.13;67.46
12358;BME280;6243;51.244;6.774;2023-05-29T01:11:49;151787.53;;;17.14;67.97
12358;BME280;6243;51.244;6.774;2023-05-29T01:14:25;151804.19;;;17.20;68.23
12358;BME280;6243;51.244;6.774;2023-05-29T01:17:00;151811.81;;;17.23;68.54
12358;BME280;6243;51.244;6.774;2023-05-29T01:20:02;151781.19;;;17.11;69.49
12358;BME280;6243;51.244;6.774;2023-05-29T01:22:40;151785.00;;;17.13;70.06
12358;BME280;6243;51.244;6.774;2023-05-29T01:25:19;151760.72;;;17.03;70.84
12358;BME280;6243;51.244;6.774;2023-05-29T01:27:49;151777.34;;;17.10;70.60
12358;BME280;6243;51.244;6.774;2023-05-29T01:30:15;151717.31;;;16.86;71.94
12358;BME280;6243;51.244;6.774;2023-05-29T01:32:41;151629.16;;;16.51;74.33
12358;BME280;6243;51.244;6.774;2023-05-29T01:35:08;151648.34;;;16.59;75.11
12358;BME280;6243;51.244;6.774;2023-05-29T01:37:33;151616.34;;;16.46;76.03
12358;BME280;6243;51.244;6.774;2023-05-29T01:39:59;151611.25;;;16.44;76.67
12358;BME280;6243;51.244;6.774;2023-05-29T01:42:25;151615.06;;;16.46;77.01
12358;BME280;6243;51.244;6.774;2023-05-29T01:44:53;151615.06;;;16.46;77.36
12358;BME280;6243;51.244;6.774;2023-05-29T01:47:20;151658.56;;;16.63;76.64
12358;BME280;6243;51.244;6.774;2023-05-29T01:49:47;151678.97;;;16.71;76.71
12358;BME280;6243;51.244;6.774;2023-05-29T01:52:14;151686.66;;;16.74;76.24
12358;BME280;6243;51.244;6.774;2023-05-29T01:54:39;151687.94;;;16.74;77.00
12358;BME280;6243;51.244;6.774;2023-05-29T01:57:05;151695.56;;;16.77;77.86
12358;BME280;6243;51.244;6.774;2023-05-29T01:59:31;151684.06;;;16.73;78.73
12358;BME280;6243;51.244;6.774;2023-05-29T02:02:05;151566.56;;;16.26;82.82
12358;BME280;6243;51.244;6.774;2023-05-29T02:04:30;151575.47;;;16.30;83.69
12358;BME280;6243;51.244;6.774;2023-05-29T02:06:56;151538.44;;;16.15;85.59
12358;BME280;6243;51.244;6.774;2023-05-29T02:09:21;151489.94;;;15.96;88.38
12358;BME280;6243;51.244;6.774;2023-05-29T02:11:47;151469.50;;;15.88;90.24
12358;BME280;6243;51.244;6.774;2023-05-29T02:14:12;151478.47;;;15.92;90.53
12358;BME280;6243;51.244;6.774;2023-05-29T02:16:38;151506.53;;;16.03;90.57
12358;BME280;6243;51.244;6.774;2023-05-29T02:19:05;151498.88;;;16.00;90.45
12358;BME280;6243;51.244;6.774;2023-05-29T02:21:30;151424.84;;;15.71;92.23
12358;BME280;6243;51.244;6.774;2023-05-29T02:23:56;151458.00;;;15.84;91.66
12358;BME280;6243;51.244;6.774;2023-05-29T02:26:21;151412.06;;;15.66;92.06
12358;BME280;6243;51.244;6.774;2023-05-29T02:28:47;151428.66;;;15.72;91.66
12358;BME280;6243;51.244;6.774;2023-05-29T02:31:12;151405.69;;;15.63;91.76
12358;BME280;6243;51.244;6.774;2023-05-29T02:33:38;151418.44;;;15.68;91.08
12358;BME280;6243;51.244;6.774;2023-05-29T02:36:05;151320.16;;;15.29;93.35
12358;BME280;6243;51.244;6.774;2023-05-29T02:38:30;151318.84;;;15.29;93.45
12358;BME280;6243;51.244;6.774;2023-05-29T02:40:56;151295.91;;;15.20;94.15
12358;BME280;6243;51.244;6.774;2023-05-29T02:43:22;151317.63;;;15.28;94.27
12358;BME280;6243;51.244;6.774;2023-05-29T02:45:47;151308.66;;;15.25;93.78
12358;BME280;6243;51.244;6.774;2023-05-29T02:48:12;151252.53;;;15.03;95.05
12358;BME280;6243;51.244;6.774;2023-05-29T02:50:38;151301.03;;;15.22;94.23
12358;BME280;6243;51.244;6.774;2023-05-29T02:53:05;151229.59;;;14.93;95.27
12358;BME280;6243;51.244;6.774;2023-05-29T02:55:30;151224.50;;;14.91;96.45
12358;BME280;6243;51.244;6.774;2023-05-29T02:57:56;151246.16;;;15.00;96.28
12358;BME280;6243;51.244;6.774;2023-05-29T03:00:21;151165.81;;;14.68;98.18
12358;BME280;6243;51.244;6.774;2023-05-29T03:02:47;151156.88;;;14.65;99.41
12358;BME280;6243;51.244;6.774;2023-05-29T03:05:12;151123.72;;;14.52;100.00
12358;BME280;6243;51.244;6.774;2023-05-29T03:07:38;151141.59;;;14.59;100.00
12358;BME280;6243;51.244;6.774;2023-05-29T03:10:05;151127.59;;;14.53;100.00
12358;BME280;6243;51.244;6.774;2023-05-29T03:12:31;151079.13;;;14.34;100.00
12358;BME280;6243;51.244;6.774;2023-05-29T03:14:56;151075.31;;;14.33;100.00
12358;BME280;6243;51.244;6.774;2023-05-29T03:17:22;151125.00;;;14.52;100.00
12358;BME280;6243;51.244;6.774;2023-05-29T03:19:47;151122.44;;;14.51;100.00
12358;BME280;6243;51.244;6.774;2023-05-29T03:22:13;151099.50;;;14.42;100.00
12358;BME280;6243;51.244;6.774;2023-05-29T03:24:38;151056.13;;;14.25;100.00
12358;BME280;6243;51.244;6.774;2023-05-29T03:27:05;151034.47;;;14.16;100.00
12358;BME280;6243;51.244;6.774;2023-05-29T03:29:31;151020.41;;;14.11;100.00
12358;BME280;6243;51.244;6.774;2023-05-29T03:31:57;150979.63;;;13.95;100.00
12358;BME280;6243;51.244;6.774;2023-05-29T03:34:22;151082.91;;;14.36;100.00
12358;BME280;6243;51.244;6.774;2023-05-29T03:36:48;151067.63;;;14.30;100.00
12358;BME280;6243;51.244;6.774;2023-05-29T03:39:14;151063.78;;;14.28;100.00
12358;BME280;6243;51.244;6.774;2023-05-29T03:41:39;151084.22;;;14.36;100.00
12358;BME280;6243;51.244;6.774;2023-05-29T03:44:06;151066.31;;;14.29;100.00
12358;BME280;6243;51.244;6.774;2023-05-29T03:46:31;151094.41;;;14.40;100.00
12358;BME280;6243;51.244;6.774;2023-05-29T03:48:57;151061.22;;;14.27;100.00
12358;BME280;6243;51.244;6.774;2023-05-29T03:51:22;151075.31;;;14.33;100.00
12358;BME280;6243;51.244;6.774;2023-05-29T03:53:48;151113.53;;;14.48;100.00
12358;BME280;6243;51.244;6.774;2023-05-29T03:56:13;151116.09;;;14.49;100.00
12358;BME280;6243;51.244;6.774;2023-05-29T03:58:39;151141.59;;;14.59;99.27
12358;BME280;6243;51.244;6.774;2023-05-29T04:01:06;151086.78;;;14.37;100.00
12358;BME280;6243;51.244;6.774;2023-05-29T04:03:31;151096.97;;;14.41;100.00
12358;BME280;6243;51.244;6.774;2023-05-29T04:05:57;151099.50;;;14.42;100.00
12358;BME280;6243;51.244;6.774;2023-05-29T04:08:22;151119.91;;;14.50;100.00
12358;BME280;6243;51.244;6.774;2023-05-29T04:10:48;151140.28;;;14.58;100.00
12358;BME280;6243;51.244;6.774;2023-05-29T04:13:13;151159.44;;;14.66;100.00
12358;BME280;6243;51.244;6.774;2023-05-29T04:15:39;151170.91;;;14.70;99.67
12358;BME280;6243;51.244;6.774;2023-05-29T04:18:06;151181.09;;;14.74;100.00
12358;BME280;6243;51.244;6.774;2023-05-29T04:20:31;151128.81;;;14.54;100.00
12358;BME280;6243;51.244;6.774;2023-05-29T04:22:56;151163.25;;;14.67;100.00
12358;BME280;6243;51.244;6.774;2023-05-29T04:25:22;151155.63;;;14.64;100.00
12358;BME280;6243;51.244;6.774;2023-05-29T04:27:48;151151.78;;;14.63;100.00
12358;BME280;6243;51.244;6.774;2023-05-29T04:30:13;151089.31;;;14.38;100.00
12358;BME280;6243;51.244;6.774;2023-05-29T04:32:39;151068.94;;;14.30;100.00
12358;BME280;6243;51.244;6.774;2023-05-29T04:35:07;151068.94;;;14.30;100.00
12358;BME280;6243;51.244;6.774;2023-05-29T04:37:32;151107.16;;;14.45;100.00
12358;BME280;6243;51.244;6.774;2023-05-29T04:39:58;151150.53;;;14.62;100.00
12358;BME280;6243;51.244;6.774;2023-05-29T04:42:24;151156.88;;;14.65;100.00
12358;BME280;6243;51.244;6.774;2023-05-29T04:44:49;151167.09;;;14.69;100.00
12358;BME280;6243;51.244;6.774;2023-05-29T04:47:15;151168.34;;;14.69;100.00
12358;BME280;6243;51.244;6.774;2023-05-29T04:49:40;151084.22;;;14.36;100.00
12358;BME280;6243;51.244;6.774;2023-05-29T04:52:07;151109.72;;;14.46;100.00
12358;BME280;6243;51.244;6.774;2023-05-29T04:54:32;151164.53;;;14.68;100.00
12358;BME280;6243;51.244;6.774;2023-05-29T04:56:58;151145.38;;;14.60;100.00
12358;BME280;6243;51.244;6.774;2023-05-29T04:59:23;151211.72;;;14.86;100.00
12358;BME280;6243;51.244;6.774;2023-05-29T05:01:49;151209.16;;;14.85;100.00
12358;BME280;6243;51.244;6.774;2023-05-29T05:04:14;151243.59;;;14.99;100.00
12358;BME280;6243;51.244;6.774;2023-05-29T05:06:40;151256.34;;;15.04;100.00
12358;BME280;6243;51.244;6.774;2023-05-29T05:09:07;151307.38;;;15.24;99.49
12358;BME280;6243;51.244;6.774;2023-05-29T05:11:32;151332.91;;;15.34;96.98
12358;BME280;6243;51.244;6.774;2023-05-29T05:13:58;151339.31;;;15.37;95.77
12358;BME280;6243;51.244;6.774;2023-05-29T05:16:23;151408.25;;;15.64;93.77
12358;BME280;6243;51.244;6.774;2023-05-29T05:18:49;151392.97;;;15.58;93.30
12358;BME280;6243;51.244;6.774;2023-05-29T05:21:14;151338.00;;;15.36;94.70
12358;BME280;6243;51.244;6.774;2023-05-29T05:23:40;151412.06;;;15.66;92.96
12358;BME280;6243;51.244;6.774;2023-05-29T05:26:07;151415.94;;;15.67;91.69
12358;BME280;6243;51.244;6.774;2023-05-29T05:28:32;151368.69;;;15.48;93.04
12358;BME280;6243;51.244;6.774;2023-05-29T05:30:58;151426.13;;;15.71;92.84
12358;BME280;6243;51.244;6.774;2023-05-29T05:33:23;151449.09;;;15.80;91.07
12358;BME280;6243;51.244;6.774;2023-05-29T05:35:49;151426.13;;;15.71;89.78
12358;BME280;6243;51.244;6.774;2023-05-29T05:38:14;151463.16;;;15.86;89.39
12358;BME280;6243;51.244;6.774;2023-05-29T05:40:40;151489.94;;;15.96;88.21
12358;BME280;6243;51.244;6.774;2023-05-29T05:43:06;151555.06;;;16.22;86.58
12358;BME280;6243;51.244;6.774;2023-05-29T05:45:32;151507.81;;;16.03;85.36
12358;BME280;6243;51.244;6.774;2023-05-29T05:47:57;151452.91;;;15.82;88.38
12358;BME280;6243;51.244;6.774;2023-05-29T05:50:23;151469.50;;;15.88;86.45
12358;BME280;6243;51.244;6.774;2023-05-29T05:52:48;151546.09;;;16.18;84.89
12358;BME280;6243;51.244;6.774;2023-05-29T05:55:14;151556.31;;;16.22;85.38
12358;BME280;6243;51.244;6.774;2023-05-29T05:57:40;151571.66;;;16.28;83.21
12358;BME280;6243;51.244;6.774;2023-05-29T06:00:07;151546.09;;;16.18;82.60
12358;BME280;6243;51.244;6.774;2023-05-29T06:02:33;151535.91;;;16.14;82.58
12358;BME280;6243;51.244;6.774;2023-05-29T06:04:58;151549.91;;;16.20;83.94
12358;BME280;6243;51.244;6.774;2023-05-29T06:07:24;151551.22;;;16.20;81.80
12358;BME280;6243;51.244;6.774;2023-05-29T06:09:50;151535.91;;;16.14;82.36
12358;BME280;6243;51.244;6.774;2023-05-29T06:12:15;151613.75;;;16.45;80.22
12358;BME280;6243;51.244;6.774;2023-05-29T06:14:41;151562.69;;;16.25;79.12
12358;BME280;6243;51.244;6.774;2023-05-29T06:17:08;151598.47;;;16.39;79.55
12358;BME280;6243;51.244;6.774;2023-05-29T06:19:33;151658.56;;;16.63;79.47
12358;BME280;6243;51.244;6.774;2023-05-29T06:21:59;151682.81;;;16.72;79.11
12358;BME280;6243;51.244;6.774;2023-05-29T06:24:24;151640.66;;;16.56;77.31
12358;BME280;6243;51.244;6.774;2023-05-29T06:26:50;151727.53;;;16.90;76.64
12358;BME280;6243;51.244;6.774;2023-05-29T06:29:15;151773.50;;;17.08;74.92
12358;BME280;6243;51.244;6.774;2023-05-29T06:31:41;151793.94;;;17.16;73.56
12358;BME280;6243;51.244;6.774;2023-05-29T06:34:07;151764.53;;;17.04;73.40
12358;BME280;6243;51.244;6.774;2023-05-29T06:36:33;151731.34;;;16.91;75.01
12358;BME280;6243;51.244;6.774;2023-05-29T06:38:58;151801.63;;;17.19;74.99
12358;BME280;6243;51.244;6.774;2023-05-29T06:41:24;151901.34;;;17.58;75.68
12358;BME280;6243;51.244;6.774;2023-05-29T06:43:49;151953.78;;;17.79;73.52
12358;BME280;6243;51.244;6.774;2023-05-29T06:46:15;152022.81;;;18.06;71.65
12358;BME280;6243;51.244;6.774;2023-05-29T06:48:40;152042.00;;;18.14;71.06
12358;BME280;6243;51.244;6.774;2023-05-29T06:51:07;152004.91;;;17.99;69.02
12358;BME280;6243;51.244;6.774;2023-05-29T06:53:34;151978.06;;;17.89;68.86
12358;BME280;6243;51.244;6.774;2023-05-29T06:55:59;152068.84;;;18.24;69.21
12358;BME280;6243;51.244;6.774;2023-05-29T06:58:25;152095.66;;;18.35;68.53
12358;BME280;6243;51.244;6.774;2023-05-29T07:00:50;152094.38;;;18.34;67.73
12358;BME280;6243;51.244;6.774;2023-05-29T07:03:16;152082.88;;;18.30;68.09
12358;BME280;6243;51.244;6.774;2023-05-29T07:05:41;152119.97;;;18.44;68.15
12358;BME280;6243;51.244;6.774;2023-05-29T07:08:08;152080.34;;;18.29;66.58
12358;BME280;6243;51.244;6.774;2023-05-29T07:10:34;152077.75;;;18.28;67.52
12358;BME280;6243;51.244;6.774;2023-05-29T07:12:59;152036.84;;;18.12;67.82
12358;BME280;6243;51.244;6.774;2023-05-29T07:15:25;151999.78;;;17.97;67.81
12358;BME280;6243;51.244;6.774;2023-05-29T07:17:50;152084.16;;;18.30;67.63
12358;BME280;6243;51.244;6.774;2023-05-29T07:20:16;152126.44;;;18.47;67.51
12358;BME280;6243;51.244;6.774;2023-05-29T07:22:41;152239.03;;;18.91;67.11
12358;BME280;6243;51.244;6.774;2023-05-29T07:25:08;152175.06;;;18.66;65.76
12358;BME280;6243;51.244;6.774;2023-05-29T07:27:34;152198.06;;;18.75;65.63
12358;BME280;6243;51.244;6.774;2023-05-29T07:29:59;152267.16;;;19.02;66.69
12358;BME280;6243;51.244;6.774;2023-05-29T07:32:25;152328.56;;;19.27;65.24
12358;BME280;6243;51.244;6.774;2023-05-29T07:34:50;152329.84;;;19.27;64.67
12358;BME280;6243;51.244;6.774;2023-05-29T07:37:16;152281.22;;;19.08;63.87
12358;BME280;6243;51.244;6.774;2023-05-29T07:39:41;152263.28;;;19.01;65.51
12358;BME280;6243;51.244;6.774;2023-05-29T07:42:08;152244.13;;;18.93;65.49
12358;BME280;6243;51.244;6.774;2023-05-29T07:44:34;152292.72;;;19.12;64.28
12358;BME280;6243;51.244;6.774;2023-05-29T07:46:59;152375.97;;;19.45;63.77
12358;BME280;6243;51.244;6.774;2023-05-29T07:49:25;152386.22;;;19.49;64.24
12358;BME280;6243;51.244;6.774;2023-05-29T07:51:50;152456.63;;;19.77;62.91
12358;BME280;6243;51.244;6.774;2023-05-29T07:54:16;152525.75;;;20.04;61.66
12358;BME280;6243;51.244;6.774;2023-05-29T07:56:41;152559.03;;;20.17;61.96
12358;BME280;6243;51.244;6.774;2023-05-29T07:59:08;152637.25;;;20.48;60.77
12358;BME280;6243;51.244;6.774;2023-05-29T08:01:34;152623.13;;;20.42;59.86
12358;BME280;6243;51.244;6.774;2023-05-29T08:03:59;152716.66;;;20.79;60.39
12358;BME280;6243;51.244;6.774;2023-05-29T08:06:25;152716.66;;;20.79;59.01
12358;BME280;6243;51.244;6.774;2023-05-29T08:08:50;152651.31;;;20.53;59.36
12358;BME280;6243;51.244;6.774;2023-05-29T08:11:16;152751.25;;;20.93;60.40
12358;BME280;6243;51.244;6.774;2023-05-29T08:13:41;152702.59;;;20.74;58.92
12358;BME280;6243;51.244;6.774;2023-05-29T08:16:08;152580.91;;;20.26;59.19
12358;BME280;6243;51.244;6.774;2023-05-29T08:18:34;152507.81;;;19.97;60.48
12358;BME280;6243;51.244;6.774;2023-05-29T08:20:59;152515.53;;;20.00;61.22
12358;BME280;6243;51.244;6.774;2023-05-29T08:23:25;152442.50;;;19.71;60.73
12358;BME280;6243;51.244;6.774;2023-05-29T08:25:50;152515.53;;;20.00;61.02
12358;BME280;6243;51.244;6.774;2023-05-29T08:28:16;152544.97;;;20.12;60.75
12358;BME280;6243;51.244;6.774;2023-05-29T08:30:41;152547.50;;;20.13;60.37
12358;BME280;6243;51.244;6.774;2023-05-29T08:33:08;152642.34;;;20.50;59.88
12358;BME280;6243;51.244;6.774;2023-05-29T08:35:34;152669.25;;;20.61;59.21
12358;BME280;6243;51.244;6.774;2023-05-29T08:37:59;152650.06;;;20.53;59.37
12358;BME280;6243;51.244;6.774;2023-05-29T08:40:25;152738.44;;;20.88;59.47
12358;BME280;6243;51.244;6.774;2023-05-29T08:42:56;152729.47;;;20.84;59.16
12358;BME280;6243;51.244;6.774;2023-05-29T08:45:24;152801.31;;;21.12;59.68
12358;BME280;6243;51.244;6.774;2023-05-29T08:47:53;152905.13;;;21.53;58.99
12358;BME280;6243;51.244;6.774;2023-05-29T08:50:21;152725.66;;;20.83;57.52
12358;BME280;6243;51.244;6.774;2023-05-29T08:52:47;152676.94;;;20.64;59.07
12358;BME280;6243;51.244;6.774;2023-05-29T08:55:13;152792.31;;;21.09;58.79
12358;BME280;6243;51.244;6.774;2023-05-29T08:57:38;152839.72;;;21.28;57.90
12358;BME280;6243;51.244;6.774;2023-05-29T09:00:05;152824.38;;;21.22;57.52
12358;BME280;6243;51.244;6.774;2023-05-29T09:02:31;152908.94;;;21.55;58.95
12358;BME280;6243;51.244;6.774;2023-05-29T09:04:56;152974.34;;;21.80;58.24
12358;BME280;6243;51.244;6.774;2023-05-29T09:07:23;152953.81;;;21.72;57.70
12358;BME280;6243;51.244;6.774;2023-05-29T09:09:49;152725.66;;;20.83;58.01
12358;BME280;6243;51.244;6.774;2023-05-29T09:12:14;152678.25;;;20.64;59.28
12358;BME280;6243;51.244;6.774;2023-05-29T09:14:41;152670.53;;;20.61;58.78
12358;BME280;6243;51.244;6.774;2023-05-29T09:17:07;152782.06;;;21.05;58.58
12358;BME280;6243;51.244;6.774;2023-05-29T09:19:33;152908.94;;;21.55;58.85
12358;BME280;6243;51.244;6.774;2023-05-29T09:22:02;152947.38;;;21.70;57.17
12358;BME280;6243;51.244;6.774;2023-05-29T09:24:30;153057.75;;;22.13;57.26
12358;BME280;6243;51.244;6.774;2023-05-29T09:26:59;153182.22;;;22.62;56.59
12358;BME280;6243;51.244;6.774;2023-05-29T09:29:25;153237.41;;;22.84;55.69
12358;BME280;6243;51.244;6.774;2023-05-29T09:31:51;153324.66;;;23.18;54.37
12358;BME280;6243;51.244;6.774;2023-05-29T09:34:16;153211.72;;;22.74;54.34
12358;BME280;6243;51.244;6.774;2023-05-29T09:36:42;153333.63;;;23.21;53.32
12358;BME280;6243;51.244;6.774;2023-05-29T09:39:08;153175.75;;;22.59;54.09
12358;BME280;6243;51.244;6.774;2023-05-29T09:41:35;153201.47;;;22.70;53.98
12358;BME280;6243;51.244;6.774;2023-05-29T09:44:06;153286.13;;;23.03;53.96
12358;BME280;6243;51.244;6.774;2023-05-29T09:46:34;153340.06;;;23.24;53.32
12358;BME280;6243;51.244;6.774;2023-05-29T09:49:01;153334.91;;;23.22;51.66
12358;BME280;6243;51.244;6.774;2023-05-29T09:51:26;153304.09;;;23.10;52.54
12358;BME280;6243;51.244;6.774;2023-05-29T09:53:52;153087.22;;;22.25;53.62
12358;BME280;6243;51.244;6.774;2023-05-29T09:56:17;152961.50;;;21.75;54.95
12358;BME280;6243;51.244;6.774;2023-05-29T09:58:44;152958.97;;;21.74;55.52
12358;BME280;6243;51.244;6.774;2023-05-29T10:01:10;152970.50;;;21.79;55.01
12358;BME280;6243;51.244;6.774;2023-05-29T10:03:36;153106.47;;;22.32;55.47
12358;BME280;6243;51.244;6.774;2023-05-29T10:06:04;153270.75;;;22.97;54.20
12358;BME280;6243;51.244;6.774;2023-05-29T10:08:33;153239.94;;;22.85;53.44
12358;BME280;6243;51.244;6.774;2023-05-29T10:11:01;153089.81;;;22.26;53.77
12358;BME280;6243;51.244;6.774;2023-05-29T10:13:28;153196.34;;;22.68;53.96
12358;BME280;6243;51.244;6.774;2023-05-29T10:15:58;153266.91;;;22.95;52.90
12358;BME280;6243;51.244;6.774;2023-05-29T10:18:31;153218.13;;;22.76;53.28
12358;BME280;6243;51.244;6.774;2023-05-29T10:20:57;153293.84;;;23.06;52.93
12358;BME280;6243;51.244;6.774;2023-05-29T10:23:25;153364.44;;;23.34;52.27
12358;BME280;6243;51.244;6.774;2023-05-29T10:25:52;153428.69;;;23.59;51.49
12358;BME280;6243;51.244;6.774;2023-05-29T10:28:18;153336.22;;;23.22;51.15
12358;BME280;6243;51.244;6.774;2023-05-29T10:30:48;153141.09;;;22.46;53.43
12358;BME280;6243;51.244;6.774;2023-05-29T10:33:43;153028.25;;;22.02;53.81
12358;BME280;6243;51.244;6.774;2023-05-29T10:36:14;153153.94;;;22.51;53.88
12358;BME280;6243;51.244;6.774;2023-05-29T10:38:41;153251.50;;;22.89;54.41
12358;BME280;6243;51.244;6.774;2023-05-29T10:41:31;153219.44;;;22.77;54.24
12358;BME280;6243;51.244;6.774;2023-05-29T10:43:57;153216.84;;;22.76;51.90
12358;BME280;6243;51.244;6.774;2023-05-29T10:47:06;153187.34;;;22.64;53.40
12358;BME280;6243;51.244;6.774;2023-05-29T10:49:33;153268.16;;;22.96;53.31
12358;BME280;6243;51.244;6.774;2023-05-29T10:51:59;153236.09;;;22.83;53.27
12358;BME280;6243;51.244;6.774;2023-05-29T10:54:25;153188.63;;;22.65;53.69
12358;BME280;6243;51.244;6.774;2023-05-29T10:56:52;153166.78;;;22.56;54.06
12358;BME280;6243;51.244;6.774;2023-05-29T10:59:18;153071.84;;;22.19;54.14
12358;BME280;6243;51.244;6.774;2023-05-29T11:01:44;153034.63;;;22.04;53.98
12358;BME280;6243;51.244;6.774;2023-05-29T11:04:28;153094.94;;;22.28;53.99
12358;BME280;6243;51.244;6.774;2023-05-29T11:06:55;152998.78;;;21.90;54.44
12358;BME280;6243;51.244;6.774;2023-05-29T11:09:28;153028.25;;;22.02;54.12
12358;BME280;6243;51.244;6.774;2023-05-29T11:12:12;153135.97;;;22.44;55.31
12358;BME280;6243;51.244;6.774;2023-05-29T11:14:47;153033.38;;;22.04;53.75
12358;BME280;6243;51.244;6.774;2023-05-29T11:17:29;153201.47;;;22.70;54.45
12358;BME280;6243;51.244;6.774;2023-05-29T11:19:56;153386.31;;;23.42;54.00
12358;BME280;6243;51.244;6.774;2023-05-29T11:22:27;153522.41;;;23.95;53.87
12358;BME280;6243;51.244;6.774;2023-05-29T11:24:54;153431.22;;;23.60;51.29
12358;BME280;6243;51.244;6.774;2023-05-29T11:27:20;153458.22;;;23.70;52.24
12358;BME280;6243;51.244;6.774;2023-05-29T11:29:48;153414.53;;;23.53;51.93
12358;BME280;6243;51.244;6.774;2023-05-29T11:32:14;153386.31;;;23.42;51.06
12358;BME280;6243;51.244;6.774;2023-05-29T11:34:43;153442.78;;;23.64;51.92
12358;BME280;6243;51.244;6.774;2023-05-29T11:37:11;153472.31;;;23.76;51.48
12358;BME280;6243;51.244;6.774;2023-05-29T11:39:38;153386.31;;;23.42;50.91
12358;BME280;6243;51.244;6.774;2023-05-29T11:42:04;153383.72;;;23.41;51.81
12358;BME280;6243;51.244;6.774;2023-05-29T11:44:30;153246.38;;;22.87;51.03
12358;BME280;6243;51.244;6.774;2023-05-29T11:47:02;153225.84;;;22.79;52.06
12358;BME280;6243;51.244;6.774;2023-05-29T11:49:28;153254.06;;;22.90;52.59
12358;BME280;6243;51.244;6.774;2023-05-29T11:51:54;153256.63;;;22.91;52.32
12358;BME280;6243;51.244;6.774;2023-05-29T11:54:19;153320.78;;;23.16;51.51
12358;BME280;6243;51.244;6.774;2023-05-29T11:56:47;153382.47;;;23.41;51.16
12358;BME280;6243;51.244;6.774;2023-05-29T11:59:12;153458.22;;;23.70;51.28
12358;BME280;6243;51.244;6.774;2023-05-29T12:01:38;153572.53;;;24.15;50.18
12358;BME280;6243;51.244;6.774;2023-05-29T12:04:13;153649.63;;;24.45;50.79
12358;BME280;6243;51.244;6.774;2023-05-29T12:06:39;153607.22;;;24.29;49.69
12358;BME280;6243;51.244;6.774;2023-05-29T12:09:04;153663.72;;;24.51;50.10
12358;BME280;6243;51.244;6.774;2023-05-29T12:11:30;153752.44;;;24.86;50.19
12358;BME280;6243;51.244;6.774;2023-05-29T12:13:58;153614.94;;;24.32;48.50
12358;BME280;6243;51.244;6.774;2023-05-29T12:16:23;153643.19;;;24.43;49.24
12358;BME280;6243;51.244;6.774;2023-05-29T12:18:49;153665.03;;;24.51;47.72
12358;BME280;6243;51.244;6.774;2023-05-29T12:21:15;153578.97;;;24.18;49.10
12358;BME280;6243;51.244;6.774;2023-05-29T12:23:40;153467.19;;;23.74;49.62
12358;BME280;6243;51.244;6.774;2023-05-29T12:26:06;153501.84;;;23.87;49.78
12358;BME280;6243;51.244;6.774;2023-05-29T12:28:31;153499.31;;;23.86;49.30
12358;BME280;6243;51.244;6.774;2023-05-29T12:30:59;153607.22;;;24.29;50.00
12358;BME280;6243;51.244;6.774;2023-05-29T12:33:27;153622.59;;;24.35;49.22
12358;BME280;6243;51.244;6.774;2023-05-29T12:35:53;153345.19;;;23.26;50.00
12358;BME280;6243;51.244;6.774;2023-05-29T12:38:18;153438.94;;;23.63;50.16
12358;BME280;6243;51.244;6.774;2023-05-29T12:40:48;153490.28;;;23.83;49.65
12358;BME280;6243;51.244;6.774;2023-05-29T12:43:14;153573.84;;;24.16;49.63
12358;BME280;6243;51.244;6.774;2023-05-29T12:45:39;153549.41;;;24.06;48.67
12358;BME280;6243;51.244;6.774;2023-05-29T12:48:07;153622.59;;;24.35;48.50
12358;BME280;6243;51.244;6.774;2023-05-29T12:50:34;153546.78;;;24.05;48.41
12358;BME280;6243;51.244;6.774;2023-05-29T12:53:00;153632.91;;;24.39;49.92
12358;BME280;6243;51.244;6.774;2023-05-29T12:55:27;153636.75;;;24.40;48.53